Flight Track Log - Related Links

Times and Time Zones

All times are in EST time to prevent confusion due to time zone crossing. See the LJY630 flight status page for this flight to view local times or setup timezone preferences in your user account.

Time Position Orientation Groundspeed Altitude Reporting Facility
EST Latitude Longitude Course Direction KTS MPH feet Rate Location/Type
Thu 09:01:46 AM 39.7000 -75.6000 322° Northwest 175 201 1,000  Level Philadelphia TRACON
Thu 09:02:52 AM 39.7500 -75.6500 335° Northwest 225 259 3,600 2,636 Climbing Philadelphia TRACON
Thu 09:03:33 AM 39.7689 -75.6919 300° West 224 258 5,700 3,208 Climbing New York Center
Thu 09:04:33 AM 39.7908 -75.7692 290° West 229 264 9,000 2,200 Climbing New York Center
Thu 09:05:33 AM 39.8142 -75.8544 290° West 244 281 10,100 950 Climbing New York Center
Thu 09:06:33 AM 39.8381 -75.9319 292° West 254 292 10,900 1,900 Climbing New York Center
Thu 09:07:33 AM 39.8636 -76.0150 292° West 254 292 13,900 3,600 Climbing New York Center
Thu 09:08:33 AM 39.8883 -76.1117 288° West 254 292 18,100 3,850 Climbing New York Center
Thu 09:09:33 AM 39.9092 -76.2050 286° West 261 300 21,600 2,850 Climbing New York Center
Thu 09:10:33 AM 39.9131 -76.3003 273° West 261 300 23,800 1,200 Climbing New York Center
Thu 09:11:33 AM 39.9164 -76.4061 272° West 280 322 24,000 100 Climbing New York Center
Thu 09:12:33 AM 39.9211 -76.5256 273° West 309 356 24,000  Level New York Center
Thu 09:13:33 AM 39.9278 -76.6425 274° West 327 376 24,000  Level New York Center
Thu 09:14:33 AM 39.9303 -76.7592 272° West 332 382 24,000  Level New York Center
Thu 09:15:33 AM 39.9367 -76.8761 274° West 332 382 24,000  Level New York Center
Thu 09:16:33 AM 39.9389 -76.9928 271° West 332 382 24,000  Level New York Center
Thu 09:17:33 AM 39.9431 -77.1097 273° West 332 382 24,000  Level New York Center
Thu 09:19:46 AM 39.9533 -77.3692 273° West 325 374 24,000  Level Cleveland Center
Thu 09:20:48 AM 39.9569 -77.4856 272° West 324 373 24,000  Level Cleveland Center
Thu 09:21:49 AM 39.9608 -77.6014 273° West 322 371 24,000  Level Cleveland Center
Thu 09:22:51 AM 39.9642 -77.7175 272° West 321 369 24,000  Level Cleveland Center
Thu 09:23:53 AM 39.9678 -77.8325 272° West 319 367 24,000  Level Cleveland Center
Thu 09:24:54 AM 39.9694 -77.9472 271° West 318 366 24,000  Level Cleveland Center
Thu 09:25:56 AM 39.9503 -78.0825 260° West 318 366 24,000  Level Cleveland Center
Thu 09:26:58 AM 39.9333 -78.1936 259° West 315 362 24,000 -780 Level Cleveland Center
Thu 09:27:59 AM 39.9153 -78.3050 258° West 306 352 22,400 -1,561 Descending Cleveland Center
Thu 09:29:01 AM 39.8989 -78.4100 259° West 299 344 20,800 -1,597 Descending Cleveland Center
Thu 09:30:03 AM 39.8814 -78.5208 258° West 309 356 19,100 -1,707 Descending Cleveland Center
Thu 09:31:04 AM 39.8633 -78.6275 258° West 306 352 17,300 -1,909 Descending Cleveland Center
Thu 09:31:31 AM 39.8547 -78.6786 258° West 296 341 16,300 -2,267 Descending Cleveland Center
Thu 09:31:49 AM 39.8503 -78.7106 260° West 287 330 15,600 -2,057 Descending Cleveland Center
Thu 09:32:06 AM 39.8461 -78.7375 259° West 287 330 15,100 -1,967 Descending Cleveland Center
Thu 09:32:50 AM 39.8339 -78.8089 257° West 282 325 13,600 -1,742 Descending Cleveland Center
Thu 09:33:08 AM 39.8306 -78.8300 258° West 290 334 13,300 -1,869 Descending Cleveland Center
Thu 09:33:51 AM 39.8144 -78.9178 257° West 305 351 11,700 -1,967 Descending Cleveland Center
Thu 09:34:09 AM 39.8136 -78.9358 267° West 299 344 11,300 -1,636 Descending Cleveland Center
Thu 09:34:57 AM 39.7981 -79.0161 256° West 225 259 9,900 -1,452 Descending Cleveland Center
Thu 09:35:11 AM 39.7969 -79.0297 264° West 245 282 9,800 -1,770 Descending Cleveland Center
Thu 09:35:58 AM 39.7853 -79.0931 257° West 202 232 8,100 -1,869 Descending Cleveland Center
Thu 09:36:12 AM 39.7847 -79.1036 266° West 216 249 7,900 -1,700 Descending Cleveland Center
Thu 09:36:58 AM 39.7728 -79.1675 256° West 215 247 6,400 -1,742 Descending Cleveland Center
Thu 09:37:14 AM 39.7731 -79.1792 272° West 215 247 6,100 -1,377 Descending Cleveland Center
Thu 09:37:59 AM 39.7597 -79.2500 256° West 215 247 5,000 -1,065 Descending Cleveland Center
Thu 09:38:16 AM 39.7586 -79.2550 254° West 217 250 5,000  Level Cleveland Center
Thu 09:39:17 AM 39.7469 -79.3297 259° West 214 246 5,000 -49 Level Cleveland Center
Thu 09:40:19 AM 39.7325 -79.4114 257° West 200 230 4,900 -244 Descending Cleveland Center
Thu 09:41:20 AM 39.7200 -79.4783 256° West 195 224 4,500 -195 Descending Cleveland Center
Thu 09:42:22 AM 39.7317 -79.5442 283° West 194 223 4,500  Level Cleveland Center
Thu 09:43:24 AM 39.7467 -79.6169 285° West 200 230 4,500  Level Cleveland Center
Thu 09:44:25 AM 39.7603 -79.6875 284° West 203 234 4,500  Level Cleveland Center
Thu 09:45:27 AM 39.7719 -79.7583 282° West 201 231 4,500  Level Cleveland Center
Thu 09:46:29 AM 39.7900 -79.8183 291° West 190 219 4,500 -146 Level Cleveland Center
Thu 09:47:30 AM 39.8133 -79.8714 300° West 171 197 4,200 -732 Descending Cleveland Center
Thu 09:48:32 AM 39.7989 -79.9403 255° West 188 216 3,000 -581 Descending Cleveland Center
Thu 09:49:34 AM 39.7481 -79.9367 177° South 183 211 3,000 -293 Level Cleveland Center
Thu 09:50:35 AM 39.6986 -79.9269 171° South 182 209 2,400 -683 Descending Cleveland Center
Thu 09:51:37 AM 39.6647 -79.9200 171° South 147 169 1,600 -774 Descending Cleveland Center
Thu 09:53:00 AM 39.6436 -79.9175 175° South  Level Estimated
Thu 10:00:00 AM 39.6436 -79.9175 175° South  Level Estimated
Thu 10:01:00 AM 39.6436 -79.9175 175° South  Level Estimated
Thu 10:02:00 AM 39.6436 -79.9175 175° South  Level Estimated
Thu 10:03:00 AM 39.6436 -79.9175 175° South  Level Estimated
Thu 10:04:00 AM 39.6436 -79.9175 175° South  Level Estimated
Thu 10:05:00 AM 39.6436 -79.9175 175° South  Level Estimated
Thu 10:06:00 AM 39.6436 -79.9175 175° South  Level Estimated
Thu 10:07:00 AM 39.6436 -79.9175 175° South  Level Estimated

Login

Don't have an account? Register now (free) for customized features, flight alerts, and more!